Time;durP1;ratioP1;P1;durP2;ratioP2;P2;SDS_P1;SDS_P2;PMS_P1;PMS_P2;Temp;Humidity;BMP_temperature;BMP_pressure;BME280_temperature;BME280_humidity;BME280_pressure;Samples;Min_cycle;Max_cycle;Signal;HPM_P1;HPM_P2
2022/02/20 00:00:15;;;;;;;43.15;29.30;;;;;;;5.20;91.10;98674.06;5038987;28;21260;-65
2022/02/20 00:02:41;;;;;;;40.88;28.52;;;;;;;5.22;91.26;98681.69;5037485;28;20052;-64
2022/02/20 00:05:07;;;;;;;36.00;27.05;;;;;;;5.09;90.55;98672.28;5035240;28;20796;-66
2022/02/20 00:07:32;;;;;;;39.13;27.13;;;;;;;4.99;90.88;98682.38;5041343;28;20079;-65
2022/02/20 00:09:57;;;;;;;35.47;26.15;;;;;;;4.98;91.03;98667.03;5035229;28;20033;-65
2022/02/20 00:12:23;;;;;;;35.78;25.75;;;;;;;4.95;90.40;98672.41;5040476;28;20021;-65
2022/02/20 00:14:48;;;;;;;36.47;24.95;;;;;;;4.84;91.33;98677.47;5038482;28;20045;-64
2022/02/20 00:17:14;;;;;;;35.35;25.67;;;;;;;4.46;91.59;98616.59;5045484;28;20028;-65
2022/02/20 00:19:39;;;;;;;36.22;25.90;;;;;;;4.89;91.07;98672.81;5039058;28;20047;-63
2022/02/20 00:22:04;;;;;;;36.47;26.80;;;;;;;4.49;90.49;98611.19;5025599;28;20111;-65
2022/02/20 00:24:30;;;;;;;37.13;25.75;;;;;;;4.77;90.95;98667.59;5042049;28;20359;-65
2022/02/20 00:26:55;;;;;;;37.28;26.48;;;;;;;4.88;91.25;98678.94;5030573;28;20665;-65
2022/02/20 00:29:21;;;;;;;36.92;25.45;;;;;;;4.85;90.46;98676.56;5044901;28;20109;-64
2022/02/20 00:31:46;;;;;;;36.60;25.67;;;;;;;4.72;90.70;98667.09;5038853;28;20392;-65
2022/02/20 00:34:11;;;;;;;36.72;25.75;;;;;;;4.74;91.39;98685.84;5043213;28;20175;-65
2022/02/20 00:36:37;;;;;;;34.47;25.80;;;;;;;4.68;90.78;98675.16;5042672;28;20117;-66
2022/02/20 00:39:02;;;;;;;36.05;25.42;;;;;;;4.68;90.16;98672.59;5040309;28;20395;-63
2022/02/20 00:41:28;;;;;;;35.90;24.98;;;;;;;4.67;90.53;98676.06;5043942;28;20060;-66
2022/02/20 00:43:53;;;;;;;34.22;24.52;;;;;;;4.61;89.93;98672.97;5037603;28;20113;-63
2022/02/20 00:46:19;;;;;;;33.67;24.30;;;;;;;4.19;90.92;98627.81;5031567;28;20047;-66
2022/02/20 00:48:44;;;;;;;35.38;24.88;;;;;;;4.28;91.10;98624.63;5043807;28;20465;-63
2022/02/20 00:51:09;;;;;;;35.40;24.38;;;;;;;4.49;90.33;98666.13;5042594;28;20426;-65
2022/02/20 00:53:35;;;;;;;35.58;25.23;;;;;;;4.58;90.36;98677.53;5042048;28;20021;-65
2022/02/20 00:56:01;;;;;;;34.00;23.80;;;;;;;4.49;90.86;98683.31;5042629;28;20028;-64
2022/02/20 00:58:26;;;;;;;35.70;23.52;;;;;;;4.36;90.85;98683.31;5042403;28;20040;-65
2022/02/20 01:00:51;;;;;;;33.13;23.27;;;;;;;4.37;89.94;98662.63;5032285;28;20036;-65
2022/02/20 01:03:17;;;;;;;31.95;23.08;;;;;;;4.37;89.48;98678.06;5045503;28;20023;-64
2022/02/20 01:05:44;;;;;;;34.42;23.02;;;;;;;4.19;90.24;98690.41;5043998;28;20028;-65
2022/02/20 01:08:09;;;;;;;31.75;22.20;;;;;;;4.14;91.03;98679.59;5043326;28;20108;-65
2022/02/20 01:10:35;;;;;;;35.25;23.60;;;;;;;4.26;91.98;98684.88;5015955;28;20375;-65
2022/02/20 01:13:01;;;;;;;36.85;23.05;;;;;;;4.38;91.81;98694.31;5023433;28;20026;-65
2022/02/20 01:15:26;;;;;;;32.55;22.25;;;;;;;4.26;91.34;98697.75;5035562;28;20029;-64
2022/02/20 01:17:52;;;;;;;32.90;22.50;;;;;;;4.27;90.95;98687.34;5031520;28;20577;-65
2022/02/20 01:20:17;;;;;;;30.88;21.92;;;;;;;4.32;91.89;98684.44;5026554;28;20032;-65
2022/02/20 01:22:43;;;;;;;32.92;22.48;;;;;;;4.37;92.09;98695.28;5022673;28;20128;-65
2022/02/20 01:25:08;;;;;;;31.05;22.27;;;;;;;4.33;91.40;98698.97;5041905;28;20033;-65
2022/02/20 01:27:34;;;;;;;31.65;22.60;;;;;;;4.31;92.07;98690.50;5040267;28;20020;-65
2022/02/20 01:29:59;;;;;;;32.08;22.17;;;;;;;4.45;92.55;98703.28;5017843;28;20167;-66
2022/02/20 01:32:25;;;;;;;31.20;22.88;;;;;;;4.19;91.96;98654.38;4993636;28;20480;-66
2022/02/20 01:34:50;;;;;;;35.90;23.85;;;;;;;4.40;93.36;98701.03;5040512;28;20495;-64
2022/02/20 01:37:16;;;;;;;33.75;22.90;;;;;;;4.49;94.11;98694.44;5041971;28;20021;-65
2022/02/20 01:39:41;;;;;;;34.10;22.95;;;;;;;4.46;94.55;98693.81;5038517;28;20079;-66
2022/02/20 01:42:07;;;;;;;31.83;21.92;;;;;;;4.57;93.01;98694.72;5035488;28;20467;-65
2022/02/20 01:44:33;;;;;;;31.45;22.27;;;;;;;4.61;90.72;98698.75;5028465;28;20041;-64
2022/02/20 01:47:17;;;;;;;30.35;22.48;;;;;;;4.52;89.75;98690.81;5037508;28;20064;-62
2022/02/20 01:49:45;;;;;;;31.50;21.58;;;;;;;4.48;89.33;98695.38;5030925;28;20017;-65
2022/02/20 01:52:11;;;;;;;33.10;21.95;;;;;;;4.43;88.37;98685.38;5035477;28;20025;-64
2022/02/20 01:54:37;;;;;;;31.65;23.15;;;;;;;4.38;89.73;98694.31;5040540;28;20033;-65
2022/02/20 01:57:03;;;;;;;30.75;22.40;;;;;;;4.42;89.60;98696.59;5032308;28;20074;-65
2022/02/20 01:59:28;;;;;;;30.88;22.60;;;;;;;4.01;89.19;98668.47;5040185;28;20074;-65
2022/02/20 02:01:55;;;;;;;30.08;20.25;;;;;;;4.08;90.26;98686.91;5037896;28;20033;-66
2022/02/20 02:04:21;;;;;;;29.60;19.52;;;;;;;4.22;91.24;98684.25;5036501;28;20431;-65
2022/02/20 02:06:47;;;;;;;32.15;20.05;;;;;;;4.25;90.50;98691.75;5037303;28;20784;-66
2022/02/20 02:09:14;;;;;;;29.52;20.15;;;;;;;4.37;90.96;98683.22;5034675;28;21109;-64
2022/02/20 02:11:41;;;;;;;28.90;19.63;;;;;;;4.42;89.34;98677.75;5036741;28;20366;-65
2022/02/20 02:14:06;;;;;;;28.17;19.40;;;;;;;4.38;89.41;98664.28;5018101;28;20123;-64
2022/02/20 02:16:32;;;;;;;27.55;18.73;;;;;;;3.99;89.36;98600.88;5033126;28;20104;-65
2022/02/20 02:18:57;;;;;;;28.70;20.10;;;;;;;4.03;89.33;98657.19;5025349;28;20688;-64
2022/02/20 02:21:22;;;;;;;33.55;20.40;;;;;;;3.99;89.61;98645.41;5031672;28;20033;-68
2022/02/20 02:23:48;;;;;;;30.40;19.80;;;;;;;3.90;88.84;98643.47;5036059;28;20052;-65
2022/02/20 02:26:15;;;;;;;27.75;18.63;;;;;;;3.88;89.29;98640.16;5032431;28;20024;-64
2022/02/20 02:28:41;;;;;;;26.65;17.80;;;;;;;3.58;88.51;98568.47;5031910;28;20017;-64
2022/02/20 02:31:06;;;;;;;27.65;18.67;;;;;;;4.00;88.68;98641.94;5030518;28;20027;-65
2022/02/20 02:33:34;;;;;;;28.20;18.17;;;;;;;3.88;89.30;98637.59;5034897;28;20487;-64
2022/02/20 02:36:01;;;;;;;26.63;18.27;;;;;;;3.69;88.29;98598.56;5006661;28;20048;-65
2022/02/20 02:38:27;;;;;;;26.80;18.02;;;;;;;3.93;88.35;98645.84;5029821;28;20411;-66
2022/02/20 02:40:57;;;;;;;28.83;18.55;;;;;;;3.76;89.16;98628.09;5033660;28;20860;-65
2022/02/20 02:43:22;;;;;;;;;;;;;;;3.75;88.61;98647.06;5035235;28;20021;-65
2022/02/20 02:45:49;;;;;;;25.85;16.40;;;;;;;3.49;88.70;98644.44;5035365;28;20341;-66
2022/02/20 02:48:14;;;;;;;24.95;16.55;;;;;;;3.56;89.12;98632.84;5049272;28;20017;-65
2022/02/20 02:50:39;;;;;;;25.02;17.23;;;;;;;3.64;88.53;98625.44;5027919;28;20025;-65
2022/02/20 02:53:07;;;;;;;26.52;17.17;;;;;;;3.55;88.92;98602.88;5036486;28;20016;-65
2022/02/20 02:55:33;;;;;;;26.83;17.33;;;;;;;3.57;89.31;98629.31;5036336;28;20197;-65
2022/02/20 02:57:58;;;;;;;26.17;16.83;;;;;;;3.66;89.06;98620.19;5017156;28;20022;-67
2022/02/20 03:00:24;;;;;;;25.90;17.67;;;;;;;3.75;88.95;98616.19;5037129;28;20110;-64
2022/02/20 03:02:49;;;;;;;23.70;16.70;;;;;;;3.65;88.37;98615.97;5036994;28;20029;-66
2022/02/20 03:05:14;;;;;;;23.55;16.52;;;;;;;3.61;88.19;98617.94;5032687;28;20876;-65
2022/02/20 03:07:42;;;;;;;25.05;16.63;;;;;;;3.62;88.21;98632.41;5028511;28;20029;-65
2022/02/20 03:10:07;;;;;;;24.98;15.68;;;;;;;3.58;88.77;98641.25;5033534;28;20039;-65
2022/02/20 03:12:33;;;;;;;26.40;17.63;;;;;;;3.46;88.26;98657.47;5037444;28;20021;-66
2022/02/20 03:14:58;;;;;;;27.63;18.20;;;;;;;3.47;87.89;98654.00;5037516;28;20468;-65
2022/02/20 03:17:23;;;;;;;26.88;16.98;;;;;;;3.45;88.51;98663.56;5033115;28;20063;-65
2022/02/20 03:19:49;;;;;;;26.08;16.70;;;;;;;3.10;88.42;98606.69;5015273;28;20009;-65
2022/02/20 03:22:15;;;;;;;25.33;16.40;;;;;;;3.12;88.33;98612.53;5028623;28;20385;-65
2022/02/20 03:24:41;;;;;;;28.13;17.95;;;;;;;3.20;88.88;98670.25;5012738;28;20032;-65
2022/02/20 03:27:06;;;;;;;27.20;17.58;;;;;;;3.17;89.63;98678.13;5031759;28;20029;-65
2022/02/20 03:29:32;;;;;;;27.90;17.65;;;;;;;3.23;90.72;98679.50;5033901;28;20070;-64
2022/02/20 03:31:58;;;;;;;24.48;15.82;;;;;;;3.25;90.62;98675.91;5035308;28;20025;-65
2022/02/20 03:34:23;;;;;;;21.65;14.15;;;;;;;3.26;92.74;98681.88;5029376;28;20057;-66
2022/02/20 03:36:49;;;;;;;21.10;13.55;;;;;;;3.40;93.69;98692.13;5033398;28;20262;-65
2022/02/20 03:39:18;;;;;;;15.70;10.25;;;;;;;3.43;91.99;98673.94;5022086;28;20459;-66
2022/02/20 03:41:43;;;;;;;14.93;10.43;;;;;;;3.55;91.35;98674.06;5037256;28;20029;-65
2022/02/20 03:44:08;;;;;;;16.13;9.45;;;;;;;3.60;90.92;98667.69;5018256;28;20024;-65
2022/02/20 03:46:35;;;;;;;14.93;9.77;;;;;;;3.51;91.16;98672.63;5040678;28;20931;-66
2022/02/20 03:49:01;;;;;;;13.93;9.27;;;;;;;3.23;90.94;98621.22;5036299;28;20029;-64
2022/02/20 03:51:26;;;;;;;16.10;8.93;;;;;;;3.65;89.51;98673.38;5022088;28;20029;-66
2022/02/20 03:53:51;;;;;;;13.48;8.70;;;;;;;3.79;87.72;98663.94;5037418;28;20195;-64
2022/02/20 03:56:17;;;;;;;14.73;8.63;;;;;;;3.42;87.22;98594.34;5031594;28;20035;-64
2022/02/20 03:58:42;;;;;;;14.32;8.98;;;;;;;3.92;87.24;98664.75;5034965;28;20025;-66
2022/02/20 04:01:08;;;;;;;14.93;9.05;;;;;;;3.96;87.54;98671.38;5039967;28;20498;-66
2022/02/20 04:03:33;;;;;;;15.15;8.45;;;;;;;3.91;86.82;98681.13;5036445;28;20041;-65
2022/02/20 04:05:59;;;;;;;11.63;7.57;;;;;;;3.91;85.78;98678.56;5017098;28;20028;-66
2022/02/20 04:08:25;;;;;;;11.82;7.38;;;;;;;4.11;83.11;98684.16;5036306;28;20029;-66
2022/02/20 04:10:50;;;;;;;12.60;7.45;;;;;;;3.74;83.14;98617.09;5026849;28;20043;-65
2022/02/20 04:13:16;;;;;;;11.18;7.85;;;;;;;3.71;83.70;98613.00;5035856;28;20557;-65
2022/02/20 04:15:41;;;;;;;12.45;7.43;;;;;;;3.82;82.77;98628.53;5038126;28;20684;-64
2022/02/20 04:18:06;;;;;;;11.77;6.68;;;;;;;4.15;80.92;98680.44;5036138;28;20090;-65
2022/02/20 04:20:32;;;;;;;11.68;6.70;;;;;;;4.11;81.77;98689.28;5020651;28;20024;-65
2022/02/20 04:22:57;;;;;;;12.27;7.35;;;;;;;4.01;82.96;98683.91;5039414;28;20490;-64
2022/02/20 04:25:22;;;;;;;14.15;9.48;;;;;;;4.07;85.01;98682.69;5034370;28;20055;-65
2022/02/20 04:27:48;;;;;;;16.17;9.38;;;;;;;3.77;85.71;98622.06;5021412;28;20128;-66
2022/02/20 04:30:16;;;;;;;13.45;8.82;;;;;;;4.21;85.53;98677.44;5018970;28;20354;-64
2022/02/20 04:32:41;;;;;;;13.18;7.93;;;;;;;4.08;84.28;98674.88;5036222;28;20033;-65
2022/02/20 04:35:07;;;;;;;14.00;8.43;;;;;;;4.12;86.02;98680.63;5036218;28;20813;-65
2022/02/20 04:37:33;;;;;;;12.55;7.72;;;;;;;4.09;85.98;98685.97;5037604;28;20036;-65
2022/02/20 04:40:00;;;;;;;15.55;8.70;;;;;;;4.01;85.93;98677.00;5034701;28;20521;-65
2022/02/20 04:42:26;;;;;;;13.07;7.55;;;;;;;3.91;85.34;98686.28;5003191;28;20029;-65
2022/02/20 04:44:51;;;;;;;12.60;7.97;;;;;;;3.72;85.33;98650.63;5036348;28;20018;-65
2022/02/20 04:47:16;;;;;;;13.90;8.57;;;;;;;3.47;86.27;98634.25;5036710;28;20669;-66
2022/02/20 04:49:43;;;;;;;13.02;8.80;;;;;;;3.65;87.88;98680.25;5038379;28;20021;-65
2022/02/20 04:52:08;;;;;;;13.52;8.80;;;;;;;3.65;88.58;98693.94;5019039;28;20020;-65
2022/02/20 04:54:34;;;;;;;15.18;8.70;;;;;;;3.30;88.55;98631.94;5013530;28;20045;-65
2022/02/20 04:56:59;;;;;;;13.32;8.57;;;;;;;3.71;88.37;98681.63;5032472;28;20033;-64
2022/02/20 04:59:25;;;;;;;15.43;8.57;;;;;;;3.70;87.86;98673.06;5011244;28;20013;-65
2022/02/20 05:01:50;;;;;;;11.98;8.25;;;;;;;3.73;87.69;98675.44;5037595;28;20054;-65
2022/02/20 05:04:16;;;;;;;11.23;7.80;;;;;;;3.89;87.72;98679.56;5036912;28;20033;-66
2022/02/20 05:06:41;;;;;;;11.52;7.95;;;;;;;3.92;87.17;98684.53;5036351;28;20071;-65
2022/02/20 05:09:06;;;;;;;13.15;8.07;;;;;;;3.90;86.69;98668.38;5035655;28;20028;-65
2022/02/20 05:11:32;;;;;;;12.90;8.10;;;;;;;4.00;86.54;98677.97;5033089;28;20025;-65
2022/02/20 05:13:59;;;;;;;12.73;8.07;;;;;;;4.02;85.60;98688.97;5008049;28;20395;-65
2022/02/20 05:16:25;;;;;;;13.23;7.63;;;;;;;3.88;85.04;98665.09;5019269;28;20521;-66
2022/02/20 05:18:51;;;;;;;11.10;6.75;;;;;;;4.06;83.98;98678.47;5032106;28;20086;-65
2022/02/20 05:21:17;;;;;;;11.40;7.10;;;;;;;4.04;83.42;98689.69;5034558;28;20029;-65
2022/02/20 05:23:42;;;;;;;9.60;6.07;;;;;;;3.93;81.71;98681.84;5034706;28;20040;-65
2022/02/20 05:26:08;;;;;;;9.98;6.68;;;;;;;3.46;82.50;98626.63;5017929;28;20025;-65
2022/02/20 05:28:33;;;;;;;11.73;6.47;;;;;;;3.80;83.28;98676.69;5031616;28;20029;-63
2022/02/20 05:30:59;;;;;;;10.65;6.22;;;;;;;3.80;82.75;98671.53;5024202;28;20048;-66
2022/02/20 05:33:24;;;;;;;11.05;6.88;;;;;;;3.47;82.59;98626.53;5036772;28;20120;-65
2022/02/20 05:35:50;;;;;;;10.43;6.20;;;;;;;3.85;83.03;98684.94;5032526;28;20800;-65
2022/02/20 05:38:16;;;;;;;10.95;6.43;;;;;;;3.79;82.55;98675.03;5039463;28;20094;-65
2022/02/20 05:40:42;;;;;;;9.23;5.43;;;;;;;3.95;81.70;98686.91;5037687;28;20021;-64
2022/02/20 05:43:08;;;;;;;9.43;5.82;;;;;;;4.02;81.68;98683.00;5005593;28;20123;-65
2022/02/20 05:45:33;;;;;;;10.45;6.43;;;;;;;3.74;82.08;98648.81;5027460;28;20087;-65
2022/02/20 05:47:59;;;;;;;10.38;6.07;;;;;;;4.03;82.16;98695.78;5033805;28;20027;-66
2022/02/20 05:50:24;;;;;;;11.68;6.90;;;;;;;3.63;82.15;98643.53;5034794;28;20136;-66
2022/02/20 05:52:50;;;;;;;10.73;6.57;;;;;;;3.90;82.90;98692.34;5036393;28;20029;-65
2022/02/20 05:55:15;;;;;;;9.55;6.75;;;;;;;3.97;83.00;98701.31;5032877;28;20135;-65
2022/02/20 05:57:42;;;;;;;12.27;6.75;;;;;;;3.58;82.67;98655.88;5035903;28;20187;-66
2022/02/20 06:00:09;;;;;;;11.65;6.82;;;;;;;3.80;83.28;98704.16;5017246;28;20036;-66
2022/02/20 06:02:35;;;;;;;9.48;6.18;;;;;;;3.62;83.29;98683.84;5034216;28;20090;-64
2022/02/20 06:05:00;;;;;;;9.48;6.20;;;;;;;3.58;83.48;98704.72;5033719;28;20033;-65
2022/02/20 06:07:26;;;;;;;10.88;6.68;;;;;;;3.55;83.61;98708.31;5032007;28;20121;-65
2022/02/20 06:09:51;;;;;;;10.75;6.65;;;;;;;3.57;83.85;98721.06;5033993;28;20041;-65
2022/02/20 06:12:16;;;;;;;12.40;7.13;;;;;;;3.56;84.33;98720.25;5018100;28;20787;-64
2022/02/20 06:14:42;;;;;;;11.93;6.70;;;;;;;3.59;84.05;98724.38;5033306;28;20029;-64
2022/02/20 06:17:07;;;;;;;12.40;7.13;;;;;;;3.50;84.06;98706.94;4999885;28;20028;-65
2022/02/20 06:19:32;;;;;;;12.85;7.15;;;;;;;3.25;83.22;98655.38;5037255;28;20021;-65
2022/02/20 06:21:58;;;;;;;11.75;7.22;;;;;;;3.52;83.04;98723.09;5032080;28;20033;-65
2022/02/20 06:24:23;;;;;;;11.30;7.15;;;;;;;2.83;84.10;98682.81;5035176;28;20082;-65
2022/02/20 06:26:49;;;;;;;11.25;7.10;;;;;;;3.18;84.68;98738.91;5035377;28;20016;-66
2022/02/20 06:29:14;;;;;;;12.90;6.50;;;;;;;3.31;84.25;98736.38;5037666;28;20080;-65
2022/02/20 06:31:40;;;;;;;10.20;6.57;;;;;;;3.31;84.25;98733.81;5028518;28;20350;-66
2022/02/20 06:34:05;;;;;;;9.95;6.07;;;;;;;3.08;84.35;98689.00;5034929;28;20716;-64
2022/02/20 06:36:31;;;;;;;10.45;6.35;;;;;;;3.43;83.54;98742.50;5033400;28;20037;-65
2022/02/20 06:38:56;;;;;;;10.98;6.65;;;;;;;3.41;84.50;98740.03;5034217;28;20033;-65
2022/02/20 06:41:22;;;;;;;9.65;6.38;;;;;;;3.37;84.28;98743.72;5032560;28;20099;-66
2022/02/20 06:43:47;;;;;;;11.40;6.55;;;;;;;3.02;84.93;98736.44;5014193;28;20029;-66
2022/02/20 06:46:12;;;;;;;11.15;6.80;;;;;;;3.14;85.55;98747.72;5036556;28;20303;-64
2022/02/20 06:48:38;;;;;;;11.13;6.85;;;;;;;3.24;86.02;98756.50;5018842;28;20682;-65
2022/02/20 06:51:03;;;;;;;11.23;6.50;;;;;;;3.19;86.96;98758.53;5036353;28;20115;-66
2022/02/20 06:53:28;;;;;;;12.10;7.00;;;;;;;3.13;86.96;98738.34;5032022;28;20029;-65
2022/02/20 06:55:54;;;;;;;10.98;6.82;;;;;;;3.32;87.25;98768.88;5035925;28;20523;-66
2022/02/20 06:58:19;;;;;;;11.18;6.55;;;;;;;3.42;87.22;98771.72;5037082;28;20037;-64
2022/02/20 07:00:45;;;;;;;10.25;6.80;;;;;;;3.30;87.99;98762.19;5030370;28;20131;-66
2022/02/20 07:03:10;;;;;;;10.95;5.90;;;;;;;2.96;88.95;98710.31;5018079;28;20357;-65
2022/02/20 07:05:35;;;;;;;12.07;6.22;;;;;;;3.36;88.52;98767.78;5030422;28;20044;-65
2022/02/20 07:08:01;;;;;;;10.77;5.72;;;;;;;3.23;88.92;98780.56;5036099;28;20037;-65
2022/02/20 07:10:27;;;;;;;9.32;6.05;;;;;;;3.25;88.73;98783.84;5035813;28;20551;-66
2022/02/20 07:12:52;;;;;;;10.75;6.30;;;;;;;3.31;88.36;98774.94;5032456;28;20060;-65
2022/02/20 07:15:18;;;;;;;11.10;6.68;;;;;;;3.24;88.49;98795.03;5035604;28;20064;-66
2022/02/20 07:17:43;;;;;;;11.35;6.75;;;;;;;3.23;88.38;98795.97;5041815;28;20055;-64
2022/02/20 07:20:09;;;;;;;10.98;6.43;;;;;;;3.43;88.88;98788.78;5026822;28;20468;-65
2022/02/20 07:22:35;;;;;;;11.98;6.40;;;;;;;3.32;87.96;98779.16;5037247;28;20074;-65
2022/02/20 07:25:02;;;;;;;11.93;6.20;;;;;;;3.44;87.41;98785.28;5036343;28;20041;-65
2022/02/20 07:27:27;;;;;;;10.38;6.30;;;;;;;2.94;87.02;98691.59;5036883;28;20096;-64
2022/02/20 07:29:52;;;;;;;9.57;5.65;;;;;;;3.35;86.22;98762.72;5011032;28;20110;-65
2022/02/20 07:32:18;;;;;;;7.88;5.05;;;;;;;3.04;86.68;98728.66;5038326;28;20526;-66
2022/02/20 07:34:43;;;;;;;8.60;5.32;;;;;;;3.47;86.21;98785.94;5023105;28;20136;-66
2022/02/20 07:37:09;;;;;;;9.25;5.50;;;;;;;2.77;87.41;98679.78;5036233;28;20371;-65
2022/02/20 07:39:34;;;;;;;9.52;5.45;;;;;;;3.12;87.53;98734.16;5016258;28;20094;-65
2022/02/20 07:42:00;;;;;;;11.43;6.35;;;;;;;3.40;87.62;98774.38;5027885;28;20056;-66
2022/02/20 07:44:26;;;;;;;11.38;6.03;;;;;;;3.41;87.64;98770.03;5026840;28;20041;-64
2022/02/20 07:46:51;;;;;;;10.23;6.47;;;;;;;3.44;86.75;98780.16;5030167;28;20029;-66
2022/02/20 07:49:17;;;;;;;10.77;6.00;;;;;;;3.43;86.57;98763.06;5027939;28;20143;-65
2022/02/20 07:51:42;;;;;;;12.35;6.50;;;;;;;3.18;85.88;98715.78;5019230;28;20024;-65
2022/02/20 07:54:08;;;;;;;9.38;5.80;;;;;;;3.63;85.77;98761.81;5027376;28;20762;-66
2022/02/20 07:56:33;;;;;;;11.07;6.68;;;;;;;3.66;85.98;98765.00;5012943;28;20720;-65
2022/02/20 07:58:58;;;;;;;11.07;6.57;;;;;;;3.46;87.87;98778.31;5033226;28;20055;-65
2022/02/20 08:01:24;;;;;;;12.88;6.88;;;;;;;3.43;87.34;98763.91;5027887;28;20025;-65
2022/02/20 08:03:49;;;;;;;11.55;7.10;;;;;;;3.52;87.31;98764.25;5018783;28;20033;-66
2022/02/20 08:06:15;;;;;;;10.90;6.68;;;;;;;3.58;86.81;98777.53;5021711;28;20048;-66
2022/02/20 08:08:41;;;;;;;12.60;6.70;;;;;;;3.49;87.10;98765.28;5036761;28;20048;-65
2022/02/20 08:11:06;;;;;;;12.65;7.50;;;;;;;3.48;86.51;98779.03;5036657;28;20033;-65
2022/02/20 08:13:31;;;;;;;11.02;6.93;;;;;;;3.52;86.19;98775.34;5035063;28;20029;-63
2022/02/20 08:15:58;;;;;;;10.25;6.30;;;;;;;3.59;86.11;98781.75;5034645;28;20487;-65
2022/02/20 08:18:23;;;;;;;11.32;6.93;;;;;;;3.62;86.14;98781.56;5038318;28;20057;-65
2022/02/20 08:20:49;;;;;;;12.95;7.20;;;;;;;3.18;86.23;98707.25;5017762;28;20199;-64
2022/02/20 08:23:17;;;;;;;11.30;7.55;;;;;;;3.32;85.71;98717.47;4978797;28;20025;-65
2022/02/20 08:25:43;;;;;;;12.02;7.35;;;;;;;3.59;85.37;98771.47;5017334;28;20470;-65
2022/02/20 08:28:09;;;;;;;12.65;7.20;;;;;;;3.76;84.32;98767.00;5016444;28;20345;-66
2022/02/20 08:30:35;;;;;;;10.35;6.18;;;;;;;3.45;84.02;98727.81;5036160;28;20021;-66
2022/02/20 08:33:02;;;;;;;10.52;6.18;;;;;;;3.54;81.50;98727.25;5012895;28;20068;-63
2022/02/20 08:35:28;;;;;;;11.52;5.97;;;;;;;3.85;80.97;98774.13;5028812;28;20094;-66
2022/02/20 08:37:54;;;;;;;10.95;6.22;;;;;;;3.84;82.31;98770.75;4988732;28;20091;-65
2022/02/20 08:40:19;;;;;;;11.38;5.95;;;;;;;3.89;83.94;98767.03;5032149;28;20284;-65
2022/02/20 08:42:46;;;;;;;10.57;6.28;;;;;;;3.92;84.62;98772.00;5028644;28;20028;-65
2022/02/20 08:45:12;;;;;;;12.93;6.57;;;;;;;3.80;85.49;98773.63;5030292;28;20067;-66
2022/02/20 08:47:38;;;;;;;10.60;6.63;;;;;;;3.81;85.16;98783.78;5038833;28;20048;-66
2022/02/20 08:50:11;;;;;;;10.68;6.38;;;;;;;3.91;84.54;98778.91;5030937;28;20689;-65
2022/02/20 08:52:37;;;;;;;11.10;5.97;;;;;;;3.97;83.10;98788.78;5030232;28;20032;-66
2022/02/20 08:55:04;;;;;;;10.85;6.47;;;;;;;3.90;84.01;98789.28;5017045;28;20047;-64
2022/02/20 08:57:29;;;;;;;9.90;5.97;;;;;;;3.92;84.20;98798.53;5034993;28;20025;-66
2022/02/20 08:59:55;;;;;;;11.52;6.35;;;;;;;3.87;83.97;98804.91;5034814;28;20057;-64
2022/02/20 09:02:21;;;;;;;11.15;6.70;;;;;;;3.90;84.63;98789.28;5029405;28;20028;-65
2022/02/20 09:04:47;;;;;;;10.00;6.50;;;;;;;4.00;84.64;98796.31;5028719;28;20732;-66
2022/02/20 09:07:13;;;;;;;10.38;6.85;;;;;;;3.99;83.50;98802.38;5013895;28;20021;-65
2022/02/20 09:09:38;;;;;;;11.30;6.57;;;;;;;4.09;82.84;98800.06;5022380;28;20035;-66
2022/02/20 09:12:05;;;;;;;10.18;6.60;;;;;;;4.22;82.90;98807.81;5031517;28;20114;-65
2022/02/20 09:14:31;;;;;;;12.07;6.65;;;;;;;4.19;82.49;98800.28;5006969;28;20036;-64
2022/02/20 09:16:56;;;;;;;10.60;6.40;;;;;;;3.93;82.04;98755.66;5032733;28;20032;-65
2022/02/20 09:19:22;;;;;;;11.32;7.10;;;;;;;4.22;81.80;98802.66;5030663;28;20037;-65
2022/02/20 09:21:47;;;;;;;10.82;6.13;;;;;;;4.27;81.56;98807.50;5029965;28;20036;-66
2022/02/20 09:24:13;;;;;;;13.00;6.85;;;;;;;4.22;80.57;98805.22;5028475;28;20554;-66
2022/02/20 09:26:38;;;;;;;14.07;6.65;;;;;;;4.26;80.30;98791.22;5018522;28;20040;-65
2022/02/20 09:29:03;;;;;;;11.10;6.55;;;;;;;4.35;79.98;98780.31;5031067;28;20056;-64
2022/02/20 09:31:29;;;;;;;10.70;6.45;;;;;;;4.34;80.82;98786.38;5037320;28;20061;-66
2022/02/20 09:33:54;;;;;;;13.02;6.90;;;;;;;4.31;80.51;98781.47;5031729;28;20123;-66
2022/02/20 09:36:20;;;;;;;11.70;6.20;;;;;;;4.32;80.29;98779.69;5017400;28;20028;-66
2022/02/20 09:38:45;;;;;;;13.23;5.57;;;;;;;4.25;79.79;98763.81;5035601;28;20100;-65
2022/02/20 09:41:12;;;;;;;10.68;6.03;;;;;;;4.36;79.04;98788.88;5024129;28;20051;-65
2022/02/20 09:43:39;;;;;;;10.30;6.03;;;;;;;4.28;78.28;98797.09;5031788;28;20064;-65
2022/02/20 09:46:05;;;;;;;10.68;5.88;;;;;;;4.31;77.60;98798.63;5012098;28;20064;-66
2022/02/20 09:48:32;;;;;;;11.82;5.72;;;;;;;4.26;76.65;98788.66;5031676;28;20052;-65
2022/02/20 09:51:01;;;;;;;9.82;5.43;;;;;;;4.45;76.37;98795.16;5018776;28;20856;-66
2022/02/20 09:53:28;;;;;;;15.73;5.68;;;;;;;4.49;74.34;98786.31;5031909;28;20036;-66
2022/02/20 09:55:54;;;;;;;11.38;4.93;;;;;;;4.60;73.95;98799.31;5026490;28;20036;-65
2022/02/20 09:58:19;;;;;;;10.15;5.05;;;;;;;4.36;76.24;98745.94;5015509;28;20024;-65
2022/02/20 10:00:56;;;;;;;12.32;5.32;;;;;;;4.64;75.36;98790.44;5015621;28;20476;-64
2022/02/20 10:03:35;;;;;;;8.63;5.22;;;;;;;4.74;75.79;98796.63;5036055;28;20028;-66
2022/02/20 10:06:02;;;;;;;9.95;5.40;;;;;;;4.69;73.39;98772.94;5030814;28;20029;-64
2022/02/20 10:08:42;;;;;;;11.88;5.90;;;;;;;4.71;72.33;98745.31;5033710;28;20067;-66
2022/02/20 10:11:28;;;;;;;11.55;5.90;;;;;;;5.03;71.98;98796.41;5017313;28;20239;-65
2022/02/20 10:14:03;;;;;;;15.60;9.45;;;;;;;4.89;72.17;98744.97;5015061;28;20233;-66
2022/02/20 10:16:30;;;;;;;18.58;13.38;;;;;;;5.45;70.27;98799.50;5032008;28;20033;-65
2022/02/20 10:18:57;;;;;;;12.18;7.10;;;;;;;5.70;68.90;98797.78;5014119;28;20061;-65
2022/02/20 10:21:29;;;;;;;9.70;6.35;;;;;;;5.69;67.94;98781.47;5034859;28;20218;-66
2022/02/20 10:23:56;;;;;;;17.92;10.50;;;;;;;5.47;69.01;98716.88;5010780;28;20028;-66
2022/02/20 10:26:25;;;;;;;11.25;6.70;;;;;;;5.68;68.08;98717.91;5031669;28;20033;-65
2022/02/20 10:29:01;;;;;;;10.57;5.55;;;;;;;5.70;65.97;98690.25;5026024;28;20024;-66
2022/02/20 10:31:37;;;;;;;11.48;5.05;;;;;;;6.19;64.33;98752.97;5034481;28;20025;-65
2022/02/20 10:34:05;;;;;;;18.75;9.07;;;;;;;6.35;64.16;98750.91;5033314;28;20049;-64
2022/02/20 10:37:03;;;;;;;9.75;5.78;;;;;;;6.54;61.57;98749.50;5034961;28;20104;-64
2022/02/20 10:39:37;;;;;;;7.97;5.10;;;;;;;6.61;61.19;98752.44;5031651;28;20025;-64
2022/02/20 10:42:18;;;;;;;12.13;5.38;;;;;;;6.74;62.22;98766.91;5031880;28;20075;-63
2022/02/20 10:45:00;;;;;;;8.18;4.80;;;;;;;6.86;60.04;98765.16;5026557;28;20033;-63
2022/02/20 10:47:26;;;;;;;11.10;4.93;;;;;;;6.76;62.53;98765.97;5035048;28;20021;-65
2022/02/20 10:49:53;;;;;;;8.75;4.40;;;;;;;6.81;61.29;98769.84;5033376;28;20068;-65
2022/02/20 10:52:28;;;;;;;9.68;4.63;;;;;;;6.99;58.56;98777.97;5020139;28;20025;-65
2022/02/20 10:55:00;;;;;;;8.60;4.20;;;;;;;7.24;57.55;98763.94;5031632;28;20040;-65
2022/02/20 10:57:37;;;;;;;9.30;4.47;;;;;;;7.42;57.36;98753.91;5009352;28;20021;-65
2022/02/20 11:00:15;;;;;;;7.97;4.30;;;;;;;7.61;55.80;98765.41;5022628;28;20017;-65
2022/02/20 11:02:42;;;;;;;6.83;3.80;;;;;;;7.60;54.76;98750.84;5032716;28;20097;-65
2022/02/20 11:05:08;;;;;;;8.63;3.15;;;;;;;7.64;53.89;98760.00;5031353;28;20037;-65
2022/02/20 11:07:37;;;;;;;6.95;2.95;;;;;;;7.64;54.79;98739.28;5027953;28;20017;-64
2022/02/20 11:10:08;;;;;;;8.40;3.00;;;;;;;7.48;56.30;98687.94;5024937;28;20059;-65
2022/02/20 11:12:38;;;;;;;9.18;3.88;;;;;;;7.57;57.36;98696.72;5026068;28;20036;-64
2022/02/20 11:15:07;;;;;;;6.80;4.07;;;;;;;7.62;56.67;98695.41;5021971;28;20036;-63
2022/02/20 11:17:35;;;;;;;10.18;4.63;;;;;;;7.71;58.45;98717.16;5046724;28;20021;-62
2022/02/20 11:20:02;;;;;;;9.20;4.47;;;;;;;7.51;57.63;98674.75;5030637;28;20120;-65
2022/02/20 11:22:30;;;;;;;9.48;4.88;;;;;;;7.77;56.66;98723.59;5033139;28;20036;-65
2022/02/20 11:24:57;;;;;;;8.93;4.80;;;;;;;7.88;57.10;98726.97;5029360;28;20547;-64
2022/02/20 11:27:23;;;;;;;9.75;4.72;;;;;;;7.86;57.56;98708.13;5031864;28;20052;-65